createdAt,value
2017-05-08T00:00:06.534Z,12.64
2017-05-08T00:00:47.424Z,12.58
2017-05-08T00:01:28.299Z,12.57
2017-05-08T00:02:09.188Z,12.7
2017-05-08T00:02:50.076Z,12.65
2017-05-08T00:03:30.957Z,12.57
2017-05-08T00:04:11.833Z,12.68
2017-05-08T00:04:52.712Z,12.6
2017-05-08T00:05:33.610Z,12.61
2017-05-08T00:06:14.507Z,12.61
2017-05-08T00:06:55.380Z,12.68
2017-05-08T00:07:36.276Z,12.68
2017-05-08T00:08:17.186Z,12.64
2017-05-08T00:08:58.037Z,12.7
2017-05-08T00:09:38.916Z,12.5
2017-05-08T00:10:19.786Z,12.61
2017-05-08T00:11:00.663Z,12.55
2017-05-08T00:11:41.550Z,12.47
2017-05-08T00:12:22.426Z,12.53
2017-05-08T00:13:03.324Z,12.45
2017-05-08T00:13:44.191Z,12.46
2017-05-08T00:14:25.079Z,12.45
2017-05-08T00:15:05.966Z,12.28
2017-05-08T00:15:46.840Z,12.32
2017-05-08T00:16:27.713Z,12.35
2017-05-08T00:17:08.600Z,12.31
2017-05-08T00:17:49.491Z,12.22
2017-05-08T00:18:30.374Z,12.22
2017-05-08T00:19:11.261Z,12.24
2017-05-08T00:19:52.153Z,12.21
2017-05-08T00:20:33.027Z,12.18
2017-05-08T00:21:13.906Z,12.2
2017-05-08T00:21:54.796Z,12.15
2017-05-08T00:22:35.694Z,12.18
2017-05-08T00:23:16.585Z,12.13
2017-05-08T00:23:57.469Z,12.09
2017-05-08T00:24:38.348Z,12.2
2017-05-08T00:25:19.257Z,12.18
2017-05-08T00:26:00.145Z,12.04
2017-05-08T00:26:41.036Z,12.09
2017-05-08T00:27:21.921Z,12.18
2017-05-08T00:28:02.805Z,12
2017-05-08T00:28:43.680Z,12.12
2017-05-08T00:29:24.569Z,12.07
2017-05-08T00:30:05.453Z,12.04
2017-05-08T00:30:46.333Z,12.1
2017-05-08T00:31:27.238Z,12.04
2017-05-08T00:32:08.125Z,12.04
2017-05-08T00:32:49.021Z,11.99
2017-05-08T00:33:29.914Z,12.12
2017-05-08T00:34:10.793Z,11.91
2017-05-08T00:34:51.665Z,12.04
2017-05-08T00:35:32.544Z,12.04
2017-05-08T00:36:13.437Z,12.03
2017-05-08T00:36:54.333Z,11.97
2017-05-08T00:37:35.195Z,11.88
2017-05-08T00:38:16.069Z,11.97
2017-05-08T00:38:56.945Z,11.94
2017-05-08T00:39:37.828Z,11.99
2017-05-08T00:40:18.727Z,11.87
2017-05-08T00:40:59.619Z,11.97
2017-05-08T00:41:40.453Z,11.88
2017-05-08T00:42:21.346Z,11.86
2017-05-08T00:43:02.229Z,11.88
2017-05-08T00:43:43.115Z,11.84
2017-05-08T00:44:23.972Z,11.86
2017-05-08T00:45:04.849Z,11.84
2017-05-08T00:45:45.739Z,11.78
2017-05-08T00:46:26.630Z,11.72
2017-05-08T00:47:07.509Z,11.78
2017-05-08T00:47:48.371Z,11.8
2017-05-08T00:48:29.246Z,11.75
2017-05-08T00:49:10.130Z,11.73
2017-05-08T00:49:51.015Z,11.72
2017-05-08T00:50:31.896Z,11.72
2017-05-08T00:51:12.761Z,11.73
2017-05-08T00:51:53.688Z,11.7
2017-05-08T00:52:34.573Z,11.7
2017-05-08T00:53:15.466Z,11.7
2017-05-08T00:53:56.339Z,11.75
2017-05-08T00:54:37.231Z,11.69
2017-05-08T00:55:18.133Z,11.68
2017-05-08T00:55:58.992Z,11.63
2017-05-08T00:56:39.881Z,11.6
2017-05-08T00:57:20.758Z,11.59
2017-05-08T00:58:01.639Z,11.66
2017-05-08T00:58:42.502Z,11.48
2017-05-08T00:59:23.385Z,11.54
2017-05-08T01:00:04.293Z,11.51
2017-05-08T01:00:45.172Z,11.52
2017-05-08T01:01:26.056Z,11.57
2017-05-08T01:02:06.941Z,11.68
2017-05-08T01:02:47.833Z,11.55
2017-05-08T01:03:28.725Z,11.57
2017-05-08T01:04:09.616Z,11.62
2017-05-08T01:04:50.519Z,11.63
2017-05-08T01:05:31.399Z,11.69
2017-05-08T01:06:12.290Z,11.72
2017-05-08T01:06:53.179Z,11.57
2017-05-08T01:07:34.064Z,11.62
2017-05-08T01:08:14.935Z,11.66
2017-05-08T01:08:55.842Z,11.69
2017-05-08T01:09:36.719Z,11.66
2017-05-08T01:10:17.592Z,11.65
2017-05-08T01:10:58.471Z,11.68
2017-05-08T01:11:39.331Z,11.63
2017-05-08T01:12:20.212Z,11.66
2017-05-08T01:13:01.100Z,11.68
2017-05-08T01:13:41.986Z,11.7
2017-05-08T01:14:22.866Z,11.73
2017-05-08T01:15:03.749Z,11.73
2017-05-08T01:15:44.659Z,11.8
2017-05-08T01:16:25.518Z,11.73
2017-05-08T01:17:06.409Z,11.69
2017-05-08T01:17:47.301Z,11.7
2017-05-08T01:18:28.178Z,11.77
2017-05-08T01:19:09.054Z,11.7
2017-05-08T01:19:49.932Z,11.8
2017-05-08T01:20:30.831Z,11.78
2017-05-08T01:21:11.725Z,11.78
2017-05-08T01:21:52.614Z,11.72
2017-05-08T01:22:33.496Z,11.78
2017-05-08T01:23:14.395Z,11.83
2017-05-08T01:23:55.264Z,11.78
2017-05-08T01:24:36.164Z,11.83
2017-05-08T01:25:17.027Z,11.83
2017-05-08T01:25:57.915Z,11.83
2017-05-08T01:26:38.812Z,11.86
2017-05-08T01:27:19.697Z,11.91
2017-05-08T01:28:00.594Z,11.95
2017-05-08T01:28:41.490Z,11.94
2017-05-08T01:29:22.391Z,11.87
2017-05-08T01:30:03.263Z,12
2017-05-08T01:30:44.156Z,11.88
2017-05-08T01:31:25.047Z,11.99
2017-05-08T01:32:05.938Z,12.02
2017-05-08T01:32:46.813Z,12
2017-05-08T01:33:27.696Z,12
2017-05-08T01:34:08.589Z,11.99
2017-05-08T01:34:49.474Z,12.03
2017-05-08T01:35:30.358Z,12.02
2017-05-08T01:36:11.235Z,12.09
2017-05-08T01:36:52.121Z,11.97
2017-05-08T01:37:33.010Z,11.99
2017-05-08T01:38:13.887Z,12.03
2017-05-08T01:38:54.764Z,12.02
2017-05-08T01:39:35.649Z,11.97
2017-05-08T01:40:16.541Z,12.02
2017-05-08T01:40:57.427Z,11.99
2017-05-08T01:41:38.289Z,11.97
2017-05-08T01:42:19.180Z,11.99
2017-05-08T01:43:00.070Z,11.99
2017-05-08T01:43:40.958Z,12.03
2017-05-08T01:44:21.814Z,12.03
2017-05-08T01:45:02.687Z,12.02
2017-05-08T01:45:43.590Z,11.99
2017-05-08T01:46:24.464Z,12.03
2017-05-08T01:47:05.342Z,12.04
2017-05-08T01:47:46.247Z,12
2017-05-08T01:48:27.097Z,12.1
2017-05-08T01:49:07.989Z,12.15
2017-05-08T01:49:48.874Z,12.17
2017-05-08T01:50:29.753Z,12.15
2017-05-08T01:51:10.650Z,12.03
2017-05-08T01:51:51.550Z,12.09
2017-05-08T01:52:32.438Z,12.06
2017-05-08T01:53:13.333Z,12.02
2017-05-08T01:53:54.222Z,12.02
2017-05-08T01:54:35.105Z,12.02
2017-05-08T01:55:15.988Z,12.07
2017-05-08T01:55:56.869Z,12.13
2017-05-08T01:56:37.753Z,12.03
2017-05-08T01:57:18.725Z,12.04
2017-05-08T01:57:59.632Z,12.04
2017-05-08T01:58:40.502Z,12.02
2017-05-08T01:59:21.389Z,12.04
2017-05-08T02:00:02.274Z,12
2017-05-08T02:00:43.219Z,11.99
2017-05-08T02:01:24.089Z,12.02
2017-05-08T02:02:04.972Z,12
2017-05-08T02:02:45.858Z,12.03
2017-05-08T02:03:26.744Z,12.02
2017-05-08T02:04:07.620Z,12.02
2017-05-08T02:04:48.516Z,12.02
2017-05-08T02:05:29.400Z,12.07
2017-05-08T02:06:10.286Z,12.02
2017-05-08T02:06:51.172Z,12.04
2017-05-08T02:07:32.054Z,11.99
2017-05-08T02:08:12.936Z,11.99
2017-05-08T02:08:53.819Z,11.9
2017-05-08T02:09:34.695Z,11.97
2017-05-08T02:10:15.580Z,11.95
2017-05-08T02:10:56.463Z,11.91
2017-05-08T02:11:37.346Z,12
2017-05-08T02:12:18.221Z,11.97
2017-05-08T02:12:59.103Z,11.99
2017-05-08T02:13:39.998Z,11.97
2017-05-08T02:14:20.862Z,11.86
2017-05-08T02:15:01.724Z,11.9
2017-05-08T02:15:42.615Z,11.86
2017-05-08T02:16:23.496Z,11.91
2017-05-08T02:17:04.389Z,11.94
2017-05-08T02:17:45.256Z,11.88
2017-05-08T02:18:26.133Z,11.88
2017-05-08T02:19:07.017Z,11.86
2017-05-08T02:19:47.896Z,11.81
2017-05-08T02:20:28.784Z,12
2017-05-08T02:21:09.664Z,11.86
2017-05-08T02:21:50.545Z,11.97
2017-05-08T02:22:31.444Z,11.97
2017-05-08T02:23:12.330Z,11.86
2017-05-08T02:23:53.245Z,11.9
2017-05-08T02:24:34.123Z,11.78
2017-05-08T02:25:15.011Z,11.83
2017-05-08T02:25:55.891Z,11.78
2017-05-08T02:26:36.779Z,11.78
2017-05-08T02:27:17.670Z,11.77
2017-05-08T02:27:58.549Z,11.72
2017-05-08T02:28:39.431Z,11.66
2017-05-08T02:29:20.317Z,11.68
2017-05-08T02:30:01.222Z,11.66
2017-05-08T02:30:42.099Z,11.68
2017-05-08T02:31:22.979Z,11.62
2017-05-08T02:32:03.878Z,11.6
2017-05-08T02:32:44.760Z,11.63
2017-05-08T02:33:25.638Z,11.65
2017-05-08T02:34:06.522Z,11.57
2017-05-08T02:34:47.414Z,11.65
2017-05-08T02:35:28.295Z,11.65
2017-05-08T02:36:09.174Z,11.54
2017-05-08T02:36:50.056Z,11.6
2017-05-08T02:37:30.943Z,11.52
2017-05-08T02:38:11.823Z,11.55
2017-05-08T02:38:53.346Z,11.52
2017-05-08T02:39:34.216Z,11.57
2017-05-08T02:40:15.106Z,11.55
2017-05-08T02:40:55.975Z,11.51
2017-05-08T02:41:36.854Z,11.45
2017-05-08T02:42:17.734Z,11.52
2017-05-08T02:42:58.623Z,11.44
2017-05-08T02:43:39.500Z,11.45
2017-05-08T02:44:20.386Z,11.5
2017-05-08T02:45:01.279Z,11.47
2017-05-08T02:45:42.176Z,11.43
2017-05-08T02:46:23.067Z,11.43
2017-05-08T02:47:03.941Z,11.43
2017-05-08T02:47:44.825Z,11.32
2017-05-08T02:48:25.707Z,11.36
2017-05-08T02:49:06.585Z,11.37
2017-05-08T02:49:47.475Z,11.36
2017-05-08T02:50:28.366Z,11.33
2017-05-08T02:51:09.247Z,11.35
2017-05-08T02:51:50.129Z,11.32
2017-05-08T02:52:31.031Z,11.43
2017-05-08T02:53:11.896Z,11.43
2017-05-08T02:53:52.780Z,11.44
2017-05-08T02:54:33.654Z,11.44
2017-05-08T02:55:14.545Z,11.35
2017-05-08T02:55:55.437Z,11.32
2017-05-08T02:56:36.319Z,11.41
2017-05-08T02:57:17.192Z,11.33
2017-05-08T02:57:58.072Z,11.45
2017-05-08T02:58:38.966Z,11.45
2017-05-08T02:59:19.849Z,11.45
2017-05-08T03:00:00.735Z,11.43
2017-05-08T03:00:41.621Z,11.41
2017-05-08T03:01:22.515Z,11.33
2017-05-08T03:02:03.431Z,11.41
2017-05-08T03:02:44.316Z,11.44
2017-05-08T03:04:17.542Z,11.41
2017-05-08T03:04:58.417Z,11.37
2017-05-08T03:05:39.308Z,11.37
2017-05-08T03:06:20.195Z,11.41
2017-05-08T03:07:01.078Z,11.36
2017-05-08T03:07:41.965Z,11.32
2017-05-08T03:08:22.841Z,11.37
2017-05-08T03:09:03.742Z,11.35
2017-05-08T03:09:44.603Z,11.29
2017-05-08T03:10:25.478Z,11.25
2017-05-08T03:11:06.383Z,11.29
2017-05-08T03:11:47.236Z,11.22
2017-05-08T03:12:28.128Z,11.26
2017-05-08T03:13:08.990Z,11.27
2017-05-08T03:13:49.914Z,11.33
2017-05-08T03:14:30.774Z,11.43
2017-05-08T03:15:11.654Z,11.45
2017-05-08T03:15:52.538Z,11.37
2017-05-08T03:16:33.425Z,11.36
2017-05-08T03:17:14.315Z,11.44
2017-05-08T03:17:55.213Z,11.47
2017-05-08T03:18:36.094Z,11.32
2017-05-08T03:19:16.976Z,11.47
2017-05-08T03:19:57.863Z,11.52
2017-05-08T03:20:38.740Z,11.52
2017-05-08T03:21:19.633Z,11.51
2017-05-08T03:22:00.521Z,11.57
2017-05-08T03:22:41.414Z,11.51
2017-05-08T03:23:22.313Z,11.62
2017-05-08T03:24:03.192Z,11.59
2017-05-08T03:24:44.071Z,11.52
2017-05-08T03:25:24.956Z,11.54
2017-05-08T03:26:05.838Z,11.54
2017-05-08T03:26:46.730Z,11.55
2017-05-08T03:27:27.609Z,11.54
2017-05-08T03:28:08.486Z,11.55
2017-05-08T03:28:49.373Z,11.6
2017-05-08T03:29:30.259Z,11.63
2017-05-08T03:30:11.133Z,11.6
2017-05-08T03:30:52.012Z,11.6
2017-05-08T03:31:32.882Z,11.59
2017-05-08T03:32:13.763Z,11.6
2017-05-08T03:32:54.651Z,11.62
2017-05-08T03:33:35.538Z,11.63
2017-05-08T03:34:16.420Z,11.63
2017-05-08T03:34:57.280Z,11.62
2017-05-08T03:35:38.141Z,11.54
2017-05-08T03:36:19.020Z,11.55
2017-05-08T03:36:59.906Z,11.54
2017-05-08T03:37:40.797Z,11.6
2017-05-08T03:38:21.689Z,11.63
2017-05-08T03:39:02.573Z,11.63
2017-05-08T03:39:43.465Z,11.6
2017-05-08T03:40:24.359Z,11.68
2017-05-08T03:41:05.250Z,11.65
2017-05-08T03:41:46.132Z,11.69
2017-05-08T03:42:27.040Z,11.7
2017-05-08T03:43:07.927Z,11.73
2017-05-08T03:43:48.804Z,11.72
2017-05-08T03:44:29.689Z,11.75
2017-05-08T03:45:10.560Z,11.75
2017-05-08T03:45:51.434Z,11.78
2017-05-08T03:46:32.319Z,11.81
2017-05-08T03:47:13.194Z,11.81
2017-05-08T03:47:54.084Z,11.8
2017-05-08T03:48:34.944Z,11.8
2017-05-08T03:49:15.830Z,11.86
2017-05-08T03:49:56.710Z,11.86
2017-05-08T03:50:37.588Z,11.88
2017-05-08T03:51:18.462Z,11.81
2017-05-08T03:51:59.337Z,11.84
2017-05-08T03:52:40.218Z,11.84
2017-05-08T03:53:21.118Z,11.81
2017-05-08T03:54:01.983Z,11.78
2017-05-08T03:54:42.852Z,11.83
2017-05-08T03:55:23.736Z,11.83
2017-05-08T03:56:04.618Z,11.83
2017-05-08T03:56:45.511Z,11.88
2017-05-08T03:57:26.393Z,11.78
2017-05-08T03:58:07.278Z,11.84
2017-05-08T03:58:48.155Z,11.78
2017-05-08T03:59:29.039Z,11.88
2017-05-08T04:00:09.924Z,11.81
2017-05-08T04:00:50.805Z,11.84
2017-05-08T04:01:32.101Z,11.84
2017-05-08T04:02:13.451Z,11.88
2017-05-08T04:02:54.326Z,11.87
2017-05-08T04:03:35.212Z,11.86
2017-05-08T04:04:16.094Z,11.86
2017-05-08T04:04:56.982Z,11.8
2017-05-08T04:05:37.853Z,11.9
2017-05-08T04:06:18.743Z,11.97
2017-05-08T04:06:59.615Z,11.95
2017-05-08T04:07:40.503Z,11.88
2017-05-08T04:08:21.394Z,11.88
2017-05-08T04:09:02.307Z,12
2017-05-08T04:09:43.188Z,12.07
2017-05-08T04:10:24.052Z,12.03
2017-05-08T04:11:05.419Z,12.07
2017-05-08T04:11:46.284Z,12.02
2017-05-08T04:12:27.154Z,12.06
2017-05-08T04:13:08.015Z,11.95
2017-05-08T04:13:48.886Z,12.07
2017-05-08T04:14:29.776Z,12.12
2017-05-08T04:15:10.665Z,11.97
2017-05-08T04:15:51.531Z,12
2017-05-08T04:16:32.417Z,12.15
2017-05-08T04:17:13.294Z,11.95
2017-05-08T04:17:54.156Z,11.97
2017-05-08T04:18:35.036Z,12.06
2017-05-08T04:19:15.934Z,12.09
2017-05-08T04:19:56.798Z,12.1
2017-05-08T04:20:37.681Z,12.13
2017-05-08T04:21:18.564Z,12.02
2017-05-08T04:21:59.430Z,12
2017-05-08T04:22:40.328Z,12.02
2017-05-08T04:23:21.199Z,12.09
2017-05-08T04:24:02.073Z,12.07
2017-05-08T04:24:42.953Z,12
2017-05-08T04:25:23.823Z,12.04
2017-05-08T04:26:04.696Z,12.09
2017-05-08T04:26:45.609Z,12.03
2017-05-08T04:27:26.502Z,12.12
2017-05-08T04:28:07.382Z,12.06
2017-05-08T04:28:48.269Z,12.07
2017-05-08T04:29:29.157Z,12.03
2017-05-08T04:30:10.048Z,12.09
2017-05-08T04:30:50.924Z,12.15
2017-05-08T04:31:31.811Z,11.97
2017-05-08T04:32:12.692Z,12.06
2017-05-08T04:32:53.574Z,12.1
2017-05-08T04:34:27.859Z,12.07
2017-05-08T04:35:08.751Z,12.1
2017-05-08T04:35:49.618Z,12.03
2017-05-08T04:36:30.493Z,12.18
2017-05-08T04:37:11.381Z,12.21
2017-05-08T04:37:52.258Z,12.1
2017-05-08T04:38:33.202Z,12.04
2017-05-08T04:39:14.070Z,12.02
2017-05-08T04:39:54.948Z,12.18
2017-05-08T04:40:35.815Z,12.24
2017-05-08T04:41:16.690Z,12.2
2017-05-08T04:41:57.595Z,12.2
2017-05-08T04:42:38.430Z,12.2
2017-05-08T04:43:19.297Z,12.22
2017-05-08T04:44:00.162Z,12.22
2017-05-08T04:44:41.034Z,12.17
2017-05-08T04:45:21.902Z,12.15
2017-05-08T04:46:02.782Z,12.12
2017-05-08T04:46:43.649Z,12.2
2017-05-08T04:47:24.511Z,12.18
2017-05-08T04:48:05.384Z,12.17
2017-05-08T04:48:46.253Z,12.17
2017-05-08T04:49:27.122Z,12.1
2017-05-08T04:50:07.953Z,12.04
2017-05-08T04:50:48.848Z,12.1
2017-05-08T04:51:29.720Z,12.18
2017-05-08T04:52:10.578Z,12.07
2017-05-08T04:52:51.466Z,12.12
2017-05-08T04:53:32.330Z,12.2
2017-05-08T04:54:13.200Z,12.21
2017-05-08T04:54:54.060Z,12.15
2017-05-08T04:55:34.906Z,12.15
2017-05-08T04:56:15.772Z,12.18
2017-05-08T04:56:56.658Z,12.21
2017-05-08T04:57:37.505Z,12.12
2017-05-08T04:58:18.384Z,12.21
2017-05-08T04:58:59.255Z,12.22
2017-05-08T04:59:40.116Z,12.22
2017-05-08T05:00:20.997Z,12.22
2017-05-08T05:01:01.879Z,12.21
2017-05-08T05:01:42.741Z,12.15
2017-05-08T05:02:23.625Z,12.21
2017-05-08T05:03:04.497Z,12.21
2017-05-08T05:03:45.362Z,12.24
2017-05-08T05:04:26.258Z,12.24
2017-05-08T05:05:07.124Z,12.25
2017-05-08T05:05:48.006Z,12.15
2017-05-08T05:06:28.879Z,12.21
2017-05-08T05:07:09.782Z,12.17
2017-05-08T05:07:50.669Z,12.17
2017-05-08T05:08:32.430Z,12.18
2017-05-08T05:09:13.300Z,12.2
2017-05-08T05:09:54.183Z,12.21
2017-05-08T05:10:35.067Z,12.12
2017-05-08T05:11:18.456Z,12.18
2017-05-08T05:11:59.329Z,12.24
2017-05-08T05:12:40.215Z,12.21
2017-05-08T05:13:21.097Z,12.06
2017-05-08T05:14:01.990Z,12.1
2017-05-08T05:14:42.871Z,12.03
2017-05-08T05:15:23.755Z,12.02
2017-05-08T05:16:04.649Z,12.04
2017-05-08T05:16:45.542Z,12.04
2017-05-08T05:17:26.482Z,12
2017-05-08T05:18:07.395Z,11.99
2017-05-08T05:18:48.288Z,12.07
2017-05-08T05:19:29.150Z,12.07
2017-05-08T05:20:10.039Z,12.06
2017-05-08T05:20:50.905Z,12.02
2017-05-08T05:21:31.789Z,12
2017-05-08T05:22:12.667Z,12.04
2017-05-08T05:22:53.556Z,12
2017-05-08T05:23:34.437Z,12
2017-05-08T05:24:15.338Z,12.06
2017-05-08T05:24:56.335Z,12.1
2017-05-08T05:25:37.255Z,12.07
2017-05-08T05:26:18.134Z,12.07
2017-05-08T05:26:59.014Z,12.02
2017-05-08T05:27:39.921Z,12.1
2017-05-08T05:28:20.791Z,12.04
2017-05-08T05:29:01.677Z,12.1
2017-05-08T05:29:42.562Z,12.12
2017-05-08T05:30:23.442Z,12.02
2017-05-08T05:31:04.316Z,12.03
2017-05-08T05:31:45.217Z,12.02
2017-05-08T05:32:26.095Z,12.02
2017-05-08T05:33:06.984Z,12.02
2017-05-08T05:33:47.871Z,12.02
2017-05-08T05:34:28.748Z,11.99
2017-05-08T05:35:09.619Z,12
2017-05-08T05:35:50.504Z,11.84
2017-05-08T05:36:31.399Z,12
2017-05-08T05:37:12.281Z,11.9
2017-05-08T05:37:53.161Z,11.81
2017-05-08T05:38:34.049Z,11.97
2017-05-08T05:39:14.913Z,11.94
2017-05-08T05:39:55.786Z,11.87
2017-05-08T05:40:36.655Z,11.83
2017-05-08T05:41:17.531Z,11.94
2017-05-08T05:41:58.403Z,11.94
2017-05-08T05:42:39.283Z,11.87
2017-05-08T05:43:20.172Z,11.95
2017-05-08T05:44:01.058Z,11.87
2017-05-08T05:44:41.938Z,11.87
2017-05-08T05:45:22.806Z,11.86
2017-05-08T05:46:03.683Z,11.86
2017-05-08T05:46:44.566Z,12.02
2017-05-08T05:47:25.470Z,12.03
2017-05-08T05:48:06.355Z,11.99
2017-05-08T05:48:47.233Z,12.02
2017-05-08T05:49:28.106Z,11.99
2017-05-08T05:50:08.996Z,11.91
2017-05-08T05:50:49.879Z,11.91
2017-05-08T05:51:30.755Z,11.87
2017-05-08T05:52:11.639Z,11.86
2017-05-08T05:52:52.501Z,11.87
2017-05-08T05:53:33.388Z,11.91
2017-05-08T05:54:14.255Z,11.88
2017-05-08T05:54:55.187Z,11.94
2017-05-08T05:55:36.079Z,11.88
2017-05-08T05:56:17.016Z,11.78
2017-05-08T05:56:57.855Z,11.81
2017-05-08T05:57:38.736Z,11.87
2017-05-08T05:58:19.613Z,11.9
2017-05-08T05:59:15.465Z,11.9
2017-05-08T05:59:56.356Z,11.77
2017-05-08T06:00:37.235Z,11.66
2017-05-08T06:01:18.124Z,11.7
2017-05-08T06:01:59.009Z,11.65
2017-05-08T06:02:39.895Z,11.52
2017-05-08T06:03:20.771Z,11.6
2017-05-08T06:04:15.600Z,11.65
2017-05-08T06:04:56.544Z,11.77
2017-05-08T06:05:37.423Z,11.73
2017-05-08T06:07:30.797Z,11.81
2017-05-08T06:09:44.553Z,11.86
2017-05-08T06:10:25.453Z,11.69
2017-05-08T06:12:08.804Z,11.68
2017-05-08T06:12:49.681Z,11.62
2017-05-08T06:13:33.151Z,11.7
2017-05-08T06:14:14.037Z,11.68
2017-05-08T06:14:54.935Z,11.7
2017-05-08T06:15:35.829Z,11.69
2017-05-08T06:17:49.563Z,11.73
2017-05-08T06:19:43.008Z,11.68
2017-05-08T06:20:23.932Z,11.73
2017-05-08T06:22:17.274Z,11.73
2017-05-08T06:24:06.479Z,11.81
2017-05-08T06:24:48.101Z,11.81
2017-05-08T06:25:28.981Z,11.9
2017-05-08T06:26:09.863Z,11.81
2017-05-08T06:26:50.747Z,11.86
2017-05-08T06:27:31.636Z,11.81
2017-05-08T06:28:12.503Z,11.8
2017-05-08T06:28:53.390Z,11.83
2017-05-08T06:29:34.283Z,11.94
2017-05-08T06:30:23.325Z,11.94
2017-05-08T06:31:04.212Z,11.95
2017-05-08T06:31:45.094Z,11.87
2017-05-08T06:32:25.977Z,11.99
2017-05-08T06:33:06.865Z,11.99
2017-05-08T06:34:03.346Z,12
2017-05-08T06:34:44.220Z,12.1
2017-05-08T06:35:32.117Z,12.13
2017-05-08T06:36:13.005Z,12.18
2017-05-08T06:36:53.888Z,12.22
2017-05-08T06:37:34.777Z,12.22
2017-05-08T06:38:18.213Z,12.28
2017-05-08T06:38:59.095Z,12.2
2017-05-08T06:39:42.613Z,12.22
2017-05-08T06:40:23.503Z,12.25
2017-05-08T06:41:04.390Z,12.28
2017-05-08T06:41:45.271Z,12.27
2017-05-08T06:42:27.839Z,12.24
2017-05-08T06:44:04.233Z,12.36
2017-05-08T06:44:45.120Z,12.39
2017-05-08T06:45:28.487Z,12.32
2017-05-08T06:46:12.316Z,12.31
2017-05-08T06:46:53.204Z,12.31
2017-05-08T06:47:34.088Z,12.35
2017-05-08T06:48:20.684Z,12.32
2017-05-08T06:49:01.561Z,12.18
2017-05-08T06:49:42.448Z,12.27
2017-05-08T06:50:23.334Z,12.28
2017-05-08T06:51:17.553Z,12.32
2017-05-08T06:51:56.615Z,12.21
2017-05-08T06:52:37.506Z,12.31
2017-05-08T06:53:18.384Z,12.39
2017-05-08T06:53:59.267Z,12.2
2017-05-08T06:54:50.805Z,12.29
2017-05-08T06:55:31.690Z,12.27
2017-05-08T06:57:10.230Z,12.24
2017-05-08T06:57:51.056Z,12.24
2017-05-08T06:58:31.931Z,12.31
2017-05-08T07:00:25.315Z,12.37
2017-05-08T07:01:17.215Z,12.4
2017-05-08T07:01:58.097Z,12.45
2017-05-08T07:02:39.002Z,12.39
2017-05-08T07:03:22.792Z,12.37
2017-05-08T07:04:03.145Z,12.49
2017-05-08T07:04:44.038Z,12.55
2017-05-08T07:05:24.933Z,12.49
2017-05-08T07:06:05.826Z,12.47
2017-05-08T07:06:59.766Z,12.43
2017-05-08T07:07:40.589Z,12.4
2017-05-08T07:08:21.477Z,12.32
2017-05-08T07:09:02.356Z,12.2
2017-05-08T07:09:44.860Z,12.27
2017-05-08T07:10:25.749Z,12.36
2017-05-08T07:11:06.840Z,12.35
2017-05-08T07:11:47.720Z,12.4
2017-05-08T07:12:28.718Z,12.39
2017-05-08T07:13:09.568Z,12.32
2017-05-08T07:13:50.462Z,12.46
2017-05-08T07:14:31.354Z,12.46
2017-05-08T07:15:12.263Z,12.5
2017-05-08T07:15:53.150Z,12.57
2017-05-08T07:16:34.017Z,12.6
2017-05-08T07:17:14.891Z,12.7
2017-05-08T07:17:58.097Z,12.7
2017-05-08T07:18:40.651Z,12.7
2017-05-08T07:21:35.846Z,12.98
2017-05-08T07:22:16.814Z,12.83
2017-05-08T07:22:57.659Z,12.87
2017-05-08T07:23:38.548Z,12.98
2017-05-08T07:24:19.436Z,12.91
2017-05-08T07:25:00.318Z,12.9
2017-05-08T07:25:41.233Z,13.01
2017-05-08T07:26:22.098Z,12.93
2017-05-08T07:27:02.975Z,12.97
2017-05-08T07:27:50.689Z,13.01
2017-05-08T07:28:31.564Z,13.01
2017-05-08T07:29:12.461Z,12.98
2017-05-08T07:29:53.344Z,12.98
2017-05-08T07:30:34.262Z,13.01
2017-05-08T07:31:15.108Z,12.98
2017-05-08T07:31:55.994Z,12.94
2017-05-08T07:32:36.880Z,12.97
2017-05-08T07:33:17.768Z,13.01
2017-05-08T07:33:58.640Z,12.57
2017-05-08T07:34:39.530Z,12.53
2017-05-08T07:35:20.417Z,12.4
2017-05-08T07:36:01.343Z,12.49
2017-05-08T07:36:42.233Z,12.58
2017-05-08T07:37:23.112Z,12.43
2017-05-08T07:38:03.998Z,12.32
2017-05-08T07:39:52.228Z,12.36
2017-05-08T07:40:33.138Z,12.04
2017-05-08T07:41:17.115Z,11.9
2017-05-08T07:41:58.009Z,11.88
2017-05-08T07:42:38.890Z,11.78
2017-05-08T07:43:19.790Z,11.72
2017-05-08T07:45:08.035Z,11.77
2017-05-08T07:45:48.916Z,11.68
2017-05-08T07:46:29.805Z,11.73
2017-05-08T07:48:28.340Z,11.84
2017-05-08T07:49:09.212Z,11.7
2017-05-08T07:49:50.097Z,11.63
2017-05-08T07:50:45.902Z,11.68
2017-05-08T07:51:26.780Z,11.69
2017-05-08T07:52:07.657Z,11.66
2017-05-08T07:52:48.552Z,11.54
2017-05-08T07:53:29.446Z,11.57
2017-05-08T07:54:10.341Z,11.5
2017-05-08T07:54:51.222Z,11.5
2017-05-08T07:55:32.100Z,11.52
2017-05-08T07:56:27.665Z,11.57
2017-05-08T07:57:08.546Z,11.43
2017-05-08T07:59:22.327Z,11.29
2017-05-08T08:01:20.836Z,11.36
2017-05-08T08:02:01.708Z,11.41
2017-05-08T08:03:09.899Z,11.43
2017-05-08T08:03:50.795Z,11.44
2017-05-08T08:07:13.210Z,11.23
2017-05-08T08:07:54.081Z,11.19
2017-05-08T08:22:02.319Z,11.1
2017-05-08T08:22:43.222Z,11.07
2017-05-08T08:23:24.105Z,11.1
2017-05-08T08:24:04.994Z,11.15
2017-05-08T08:24:45.882Z,11.07
2017-05-08T08:25:26.755Z,11.07
2017-05-08T08:26:07.643Z,11.14
2017-05-08T08:29:28.717Z,11.25
2017-05-08T08:31:12.995Z,11.44
2017-05-08T08:31:53.861Z,11.35
2017-05-08T08:32:34.741Z,11.43
2017-05-08T08:33:15.623Z,11.5
2017-05-08T08:34:04.317Z,11.4
2017-05-08T08:34:45.186Z,11.33
2017-05-08T08:35:26.081Z,11.33
2017-05-08T08:36:06.958Z,11.22
2017-05-08T08:36:47.835Z,11.25
2017-05-08T08:37:28.721Z,11.22
2017-05-08T08:38:09.585Z,11.08
2017-05-08T08:38:50.469Z,11.15
2017-05-08T08:39:31.354Z,11.02
2017-05-08T08:40:12.238Z,10.97
2017-05-08T08:40:53.115Z,11.02
2017-05-08T08:41:33.991Z,10.99
2017-05-08T08:42:14.867Z,10.92
2017-05-08T08:42:55.750Z,10.69
2017-05-08T08:43:36.631Z,10.72
2017-05-08T08:44:17.502Z,10.75
2017-05-08T08:44:58.379Z,10.84
2017-05-08T08:45:39.266Z,10.86
2017-05-08T08:46:20.147Z,10.96
2017-05-08T08:47:01.019Z,10.86
2017-05-08T08:47:41.909Z,10.84
2017-05-08T08:48:22.781Z,10.82
2017-05-08T08:49:03.656Z,10.74
2017-05-08T08:49:44.548Z,10.74
2017-05-08T08:50:25.446Z,10.84
2017-05-08T08:51:06.339Z,10.82
2017-05-08T08:51:47.227Z,10.84
2017-05-08T08:52:28.117Z,10.76
2017-05-08T08:53:08.994Z,10.82
2017-05-08T08:53:49.946Z,10.89
2017-05-08T08:54:30.806Z,10.93
2017-05-08T08:55:11.750Z,10.94
2017-05-08T08:55:52.656Z,10.92
2017-05-08T08:56:33.546Z,10.9
2017-05-08T08:57:14.436Z,10.92
2017-05-08T08:57:55.328Z,10.94
2017-05-08T08:58:36.216Z,10.82
2017-05-08T08:59:17.107Z,10.82
2017-05-08T08:59:58.004Z,10.87
2017-05-08T09:00:38.887Z,10.93
2017-05-08T09:01:34.473Z,10.76
2017-05-08T09:02:15.372Z,10.74
2017-05-08T09:02:56.249Z,10.87
2017-05-08T09:03:37.146Z,10.84
2017-05-08T09:04:18.027Z,10.78
2017-05-08T09:04:58.903Z,10.89
2017-05-08T09:05:39.781Z,10.79
2017-05-08T09:06:20.672Z,10.78
2017-05-08T09:07:01.561Z,10.72
2017-05-08T09:07:42.436Z,10.86
2017-05-08T09:08:23.315Z,10.82
2017-05-08T09:09:04.208Z,10.79
2017-05-08T09:09:45.093Z,10.81
2017-05-08T09:10:25.972Z,10.81
2017-05-08T09:11:09.772Z,10.9
2017-05-08T09:11:50.660Z,10.86
2017-05-08T09:12:31.533Z,11.02
2017-05-08T09:14:24.905Z,10.96
2017-05-08T09:15:05.777Z,10.84
2017-05-08T09:15:46.928Z,10.84
2017-05-08T09:16:27.828Z,10.87
2017-05-08T09:17:08.708Z,10.97
2017-05-08T09:17:49.582Z,10.94
2017-05-08T09:18:30.457Z,10.87
2017-05-08T09:19:11.340Z,10.84
2017-05-08T09:19:52.228Z,10.82
2017-05-08T09:20:33.112Z,10.86
2017-05-08T09:21:16.765Z,10.86
2017-05-08T09:21:57.645Z,10.84
2017-05-08T09:22:38.533Z,10.86
2017-05-08T09:24:07.737Z,11.02
2017-05-08T09:24:48.618Z,11.08
2017-05-08T09:25:29.626Z,11.07
2017-05-08T09:26:10.508Z,11.1
2017-05-08T09:26:51.394Z,11.08
2017-05-08T09:27:32.274Z,11.14
2017-05-08T09:28:13.174Z,11.15
2017-05-08T09:28:54.048Z,11.22
2017-05-08T09:29:34.932Z,11.26
2017-05-08T09:30:15.812Z,11.44
2017-05-08T09:31:11.605Z,11.36
2017-05-08T09:31:52.493Z,11.4
2017-05-08T09:32:33.410Z,11.25
2017-05-08T09:33:14.298Z,11.25
2017-05-08T09:35:29.064Z,11.4
2017-05-08T09:36:09.946Z,11.44
2017-05-08T09:36:50.952Z,11.35
2017-05-08T09:37:31.803Z,11.23
2017-05-08T09:38:12.750Z,11.15
2017-05-08T09:38:53.648Z,11.23
2017-05-08T09:39:34.540Z,11.27